createdAt,value
2022-12-06T00:02:48.726Z,84.04
2022-12-06T00:07:51.766Z,83.84
2022-12-06T00:12:54.858Z,83.46
2022-12-06T00:17:59.251Z,83.68
2022-12-06T00:23:02.219Z,84.29
2022-12-06T00:28:05.418Z,83.97
2022-12-06T00:33:09.779Z,85.44
2022-12-06T00:38:12.791Z,85.63
2022-12-06T00:43:15.846Z,85.46
2022-12-06T00:48:20.241Z,85.11
2022-12-06T00:53:23.960Z,84.90
2022-12-06T00:58:27.091Z,84.96
2022-12-06T01:03:35.114Z,84.52
2022-12-06T01:08:39.301Z,84.95
2022-12-06T01:13:42.386Z,85.15
2022-12-06T01:18:47.499Z,85.60
2022-12-06T01:23:51.011Z,86.27
2022-12-06T01:28:54.586Z,87.71
2022-12-06T01:33:58.998Z,87.20
2022-12-06T01:39:06.858Z,86.83
2022-12-06T01:44:41.497Z,88.09
2022-12-06T01:49:50.941Z,88.24
2022-12-06T01:54:54.638Z,87.82
2022-12-06T01:59:57.904Z,87.15
2022-12-06T02:05:03.639Z,86.35
2022-12-06T02:10:07.867Z,85.28
2022-12-06T02:15:11.954Z,85.90
2022-12-06T02:20:33.744Z,85.56
2022-12-06T02:25:56.999Z,86.61
2022-12-06T02:31:08.698Z,86.24
2022-12-06T02:36:19.080Z,85.73
2022-12-06T02:41:25.195Z,86.53
2022-12-06T02:46:35.090Z,86.12
2022-12-06T02:51:38.618Z,86.25
2022-12-06T02:56:41.473Z,85.79
2022-12-06T03:01:49.948Z,85.15
2022-12-06T03:07:08.151Z,85.94
2022-12-06T03:12:19.250Z,85.99
2022-12-06T03:17:31.293Z,85.98
2022-12-06T03:22:39.963Z,87.91
2022-12-06T03:27:45.140Z,88.10
2022-12-06T03:32:51.207Z,88.04
2022-12-06T03:37:59.935Z,87.31
2022-12-06T03:43:03.660Z,86.77
2022-12-06T03:48:12.287Z,86.60
2022-12-06T03:53:18.064Z,86.40
2022-12-06T03:58:21.022Z,86.72
2022-12-06T04:03:25.363Z,85.56
2022-12-06T04:08:28.321Z,84.61
2022-12-06T04:13:31.693Z,85.27
2022-12-06T04:18:36.187Z,85.90
2022-12-06T04:23:41.172Z,86.06
2022-12-06T04:29:01.878Z,85.20
2022-12-06T04:34:23.973Z,84.90
2022-12-06T04:39:27.232Z,85.98
2022-12-06T04:44:30.157Z,85.41
2022-12-06T04:49:35.041Z,85.28
2022-12-06T04:54:39.094Z,85.59
2022-12-06T04:59:44.071Z,86.11
2022-12-06T05:04:48.341Z,85.57
2022-12-06T05:09:51.235Z,86.26
2022-12-06T05:14:54.075Z,86.34
2022-12-06T05:19:58.474Z,86.36
2022-12-06T05:25:01.677Z,87.96
2022-12-06T05:30:05.447Z,88.07
2022-12-06T05:35:10.564Z,87.70
2022-12-06T05:40:14.039Z,88.08
2022-12-06T05:45:17.178Z,87.41
2022-12-06T05:50:21.402Z,87.90
2022-12-06T05:55:24.393Z,87.89
2022-12-06T06:00:27.282Z,88.58
2022-12-06T06:05:31.688Z,87.27
2022-12-06T06:10:34.549Z,87.49
2022-12-06T06:15:37.545Z,87.12
2022-12-06T06:20:41.909Z,87.33
2022-12-06T06:25:44.873Z,87.22
2022-12-06T06:30:48.197Z,87.21
2022-12-06T06:35:52.479Z,88.35
2022-12-06T06:40:55.359Z,88.07
2022-12-06T06:46:00.280Z,87.75
2022-12-06T06:51:06.256Z,87.68
2022-12-06T06:56:09.559Z,88.76
2022-12-06T07:01:18.790Z,88.08
2022-12-06T07:06:23.148Z,87.34
2022-12-06T07:11:26.057Z,88.02
2022-12-06T07:16:28.970Z,87.87
2022-12-06T07:21:33.293Z,88.24
2022-12-06T07:26:36.214Z,88.56
2022-12-06T07:31:40.466Z,89.50
2022-12-06T07:36:44.870Z,89.71
2022-12-06T07:42:05.551Z,90.14
2022-12-06T07:47:12.976Z,89.94
2022-12-06T07:52:17.234Z,90.70
2022-12-06T07:57:21.649Z,89.86
2022-12-06T08:02:26.796Z,90.66
2022-12-06T08:07:32.302Z,90.47
2022-12-06T08:12:35.304Z,89.94
2022-12-06T08:17:38.211Z,89.18
2022-12-06T08:22:42.595Z,88.56
2022-12-06T08:27:45.505Z,88.38
2022-12-06T08:32:48.445Z,88.39
2022-12-06T08:37:52.694Z,88.13
2022-12-06T08:42:55.624Z,88.41
2022-12-06T08:47:58.521Z,88.15
2022-12-06T08:53:02.780Z,87.45
2022-12-06T08:58:05.715Z,86.54
2022-12-06T09:03:08.613Z,85.69
2022-12-06T09:08:12.977Z,85.53
2022-12-06T09:13:15.918Z,86.64
2022-12-06T09:18:18.889Z,85.51
2022-12-06T09:23:23.198Z,85.88
2022-12-06T09:28:26.107Z,85.42
2022-12-06T09:33:29.003Z,87.06
2022-12-06T09:38:37.292Z,86.86
2022-12-06T09:44:23.351Z,85.84
2022-12-06T09:49:32.547Z,86.46
2022-12-06T09:54:52.643Z,86.22
2022-12-06T10:00:10.670Z,86.08
2022-12-06T10:05:29.263Z,86.74
2022-12-06T10:10:43.010Z,86.15
2022-12-06T10:15:57.748Z,85.70
2022-12-06T10:21:10.714Z,85.91
2022-12-06T10:26:17.105Z,85.77
2022-12-06T10:31:24.744Z,86.27
2022-12-06T10:36:49.469Z,87.16
2022-12-06T10:41:58.968Z,85.93
2022-12-06T10:47:08.688Z,85.67
2022-12-06T10:52:24.167Z,85.46
2022-12-06T10:57:33.601Z,83.58
2022-12-06T11:02:43.521Z,84.00
2022-12-06T11:07:50.039Z,84.63
2022-12-06T11:12:59.952Z,83.63
2022-12-06T11:18:11.982Z,84.59
2022-12-06T11:23:23.726Z,83.04
2022-12-06T11:28:41.961Z,83.11
2022-12-06T11:33:46.728Z,82.79
2022-12-06T11:38:49.824Z,82.44
2022-12-06T11:43:54.133Z,82.51
2022-12-06T11:49:06.958Z,82.28
2022-12-06T11:54:23.683Z,82.96
2022-12-06T11:59:28.744Z,81.56
2022-12-06T12:04:37.063Z,81.80
2022-12-06T12:09:48.767Z,82.98
2022-12-06T12:14:58.449Z,83.23
2022-12-06T12:20:06.696Z,83.21
2022-12-06T12:25:24.908Z,83.06
2022-12-06T12:30:32.645Z,83.41
2022-12-06T12:35:38.486Z,82.96
2022-12-06T12:40:43.879Z,84.52
2022-12-06T12:46:22.298Z,84.47
2022-12-06T12:51:33.410Z,83.65
2022-12-06T12:56:38.143Z,83.44
2022-12-06T13:01:47.869Z,83.66
2022-12-06T13:06:56.262Z,84.68
2022-12-06T13:12:04.246Z,84.64
2022-12-06T13:17:10.102Z,86.91
2022-12-06T13:22:20.124Z,85.85
2022-12-06T13:27:24.941Z,85.73
2022-12-06T13:32:34.662Z,85.04
2022-12-06T13:37:45.585Z,86.59
2022-12-06T13:42:48.576Z,86.59
2022-12-06T13:47:52.379Z,88.07
2022-12-06T13:53:03.150Z,87.83
2022-12-06T13:58:54.440Z,87.11
2022-12-06T14:03:58.195Z,87.12
2022-12-06T14:09:02.581Z,87.77
2022-12-06T14:14:09.108Z,88.30
2022-12-06T14:19:18.883Z,87.65
2022-12-06T14:24:29.686Z,87.74
2022-12-06T14:29:33.099Z,87.20
2022-12-06T14:34:37.422Z,87.63
2022-12-06T14:39:41.664Z,86.43
2022-12-06T14:44:49.279Z,85.55
2022-12-06T14:50:10.747Z,86.06
2022-12-06T14:55:20.154Z,86.63
2022-12-06T15:00:27.823Z,87.23
2022-12-06T15:05:37.268Z,87.46
2022-12-06T15:10:42.298Z,87.01
2022-12-06T15:15:47.719Z,86.37
2022-12-06T15:20:51.536Z,87.01
2022-12-06T15:25:56.046Z,86.08
2022-12-06T15:30:59.836Z,85.87
2022-12-06T15:36:02.859Z,85.65
2022-12-06T15:41:07.376Z,87.21
2022-12-06T15:46:17.703Z,86.58
2022-12-06T15:51:24.808Z,87.14
2022-12-06T15:56:31.295Z,86.75
2022-12-06T16:01:40.566Z,88.41
2022-12-06T16:06:48.055Z,87.61
2022-12-06T16:11:52.399Z,87.20
2022-12-06T16:16:55.394Z,88.69
2022-12-06T16:21:58.702Z,88.74
2022-12-06T16:27:02.998Z,88.65
2022-12-06T16:32:07.070Z,88.05
2022-12-06T16:37:12.598Z,88.12
2022-12-06T16:42:16.956Z,87.88
2022-12-06T16:52:21.895Z,87.79
2022-12-06T16:57:26.343Z,88.35
2022-12-06T17:02:30.916Z,87.72
2022-12-06T17:07:34.012Z,87.90
2022-12-06T17:12:38.402Z,87.61
2022-12-06T17:17:41.434Z,88.88
2022-12-06T17:22:44.484Z,88.82
2022-12-06T17:27:49.604Z,89.58
2022-12-06T17:32:52.530Z,88.26
2022-12-06T17:37:56.774Z,88.80
2022-12-06T17:43:01.199Z,90.33
2022-12-06T17:48:04.134Z,88.71
2022-12-06T17:53:07.252Z,89.86
2022-12-06T17:58:11.555Z,88.81
2022-12-06T18:03:14.596Z,89.04
2022-12-06T18:08:18.459Z,89.00
2022-12-06T18:13:31.007Z,88.74
2022-12-06T18:18:33.927Z,89.35
2022-12-06T18:23:44.527Z,88.74
2022-12-06T18:29:00.279Z,89.17
2022-12-06T18:34:04.052Z,89.52
2022-12-06T18:39:14.381Z,90.36
2022-12-06T18:44:19.895Z,90.02
2022-12-06T18:49:24.823Z,90.37
2022-12-06T18:54:28.373Z,90.61
2022-12-06T18:59:32.934Z,91.12
2022-12-06T19:04:35.850Z,90.58
2022-12-06T19:09:38.932Z,91.62
2022-12-06T19:14:43.297Z,89.67
2022-12-06T19:19:46.329Z,90.79
2022-12-06T19:24:49.259Z,91.01
2022-12-06T19:29:53.997Z,90.86
2022-12-06T19:34:56.917Z,90.98
2022-12-06T19:40:00.311Z,91.21
2022-12-06T19:45:05.567Z,91.57
2022-12-06T19:50:10.265Z,91.60
2022-12-06T19:55:13.165Z,90.26
2022-12-06T20:00:22.631Z,91.98
2022-12-06T20:05:25.827Z,90.44
2022-12-06T20:10:28.818Z,91.28
2022-12-06T20:15:34.851Z,90.53
2022-12-06T20:20:37.760Z,90.73
2022-12-06T20:25:41.965Z,90.75
2022-12-06T20:30:46.413Z,91.07
2022-12-06T20:35:49.420Z,90.84
2022-12-06T20:40:52.362Z,91.59
2022-12-06T20:46:01.259Z,91.44
2022-12-06T20:51:08.792Z,91.73
2022-12-06T20:56:16.383Z,91.74
2022-12-06T21:01:22.850Z,92.43
2022-12-06T21:06:26.422Z,92.37
2022-12-06T21:11:29.428Z,92.46
2022-12-06T21:16:35.447Z,91.25
2022-12-06T21:21:40.824Z,92.28
2022-12-06T21:26:43.892Z,92.45
2022-12-06T21:31:48.550Z,91.22
2022-12-06T21:36:51.435Z,92.35
2022-12-06T21:41:54.783Z,91.58
2022-12-06T21:46:59.113Z,91.82
2022-12-06T21:52:08.877Z,91.44
2022-12-06T21:57:12.222Z,90.64
2022-12-06T22:02:17.127Z,91.51
2022-12-06T22:07:20.102Z,92.88
2022-12-06T22:12:23.014Z,91.36
2022-12-06T22:17:27.349Z,90.91
2022-12-06T22:22:30.259Z,91.85
2022-12-06T22:27:33.180Z,91.86
2022-12-06T22:32:37.479Z,92.14
2022-12-06T22:37:40.362Z,91.40
2022-12-06T22:42:43.593Z,91.80
2022-12-06T22:47:47.860Z,92.19
2022-12-06T22:52:50.783Z,91.70
2022-12-06T22:57:53.706Z,91.70
2022-12-06T23:02:59.403Z,92.08
2022-12-06T23:08:02.301Z,91.66
2022-12-06T23:13:05.259Z,91.90
2022-12-06T23:18:09.522Z,90.99
2022-12-06T23:23:12.369Z,90.35
2022-12-06T23:28:15.329Z,90.14
2022-12-06T23:33:22.668Z,90.29
2022-12-06T23:38:25.940Z,89.38
2022-12-06T23:43:28.776Z,89.29
2022-12-06T23:48:33.800Z,88.79
2022-12-06T23:53:37.484Z,88.87
2022-12-06T23:58:40.965Z,87.45
